sensor_id;sensor_type;location;lat;lon;timestamp;temperature;humidity
75466;HTU21D;64049;46.290;44.240;2023-04-01T00:00:32;1.34;64.95
75466;HTU21D;64049;46.290;44.240;2023-04-01T00:02:59;1.36;64.98
75466;HTU21D;64049;46.290;44.240;2023-04-01T00:05:26;1.34;64.90
75466;HTU21D;64049;46.290;44.240;2023-04-01T00:07:52;1.29;64.95
75466;HTU21D;64049;46.290;44.240;2023-04-01T00:10:18;1.24;65.01
75466;HTU21D;64049;46.290;44.240;2023-04-01T00:12:45;1.20;65.08
75466;HTU21D;64049;46.290;44.240;2023-04-01T00:15:11;1.20;65.17
75466;HTU21D;64049;46.290;44.240;2023-04-01T00:17:38;1.24;65.21
75466;HTU21D;64049;46.290;44.240;2023-04-01T00:20:05;1.25;65.21
75466;HTU21D;64049;46.290;44.240;2023-04-01T00:22:32;1.27;65.19
75466;HTU21D;64049;46.290;44.240;2023-04-01T00:24:59;1.28;65.17
75466;HTU21D;64049;46.290;44.240;2023-04-01T00:27:25;1.29;65.18
75466;HTU21D;64049;46.290;44.240;2023-04-01T00:29:51;1.28;65.27
75466;HTU21D;64049;46.290;44.240;2023-04-01T00:32:17;1.25;65.28
75466;HTU21D;64049;46.290;44.240;2023-04-01T00:34:43;1.23;65.37
75466;HTU21D;64049;46.290;44.240;2023-04-01T00:37:10;1.19;65.40
75466;HTU21D;64049;46.290;44.240;2023-04-01T00:39:37;1.12;65.53
75466;HTU21D;64049;46.290;44.240;2023-04-01T00:42:03;1.10;65.76
75466;HTU21D;64049;46.290;44.240;2023-04-01T00:44:32;1.10;65.81
75466;HTU21D;64049;46.290;44.240;2023-04-01T00:46:59;1.12;65.85
75466;HTU21D;64049;46.290;44.240;2023-04-01T00:49:28;1.14;65.86
75466;HTU21D;64049;46.290;44.240;2023-04-01T00:51:57;1.13;65.82
75466;HTU21D;64049;46.290;44.240;2023-04-01T00:54:26;1.13;65.94
75466;HTU21D;64049;46.290;44.240;2023-04-01T00:56:59;1.16;66.00
75466;HTU21D;64049;46.290;44.240;2023-04-01T00:59:36;1.22;66.21
75466;HTU21D;64049;46.290;44.240;2023-04-01T01:02:04;1.31;66.20
75466;HTU21D;64049;46.290;44.240;2023-04-01T01:04:33;1.35;66.09
75466;HTU21D;64049;46.290;44.240;2023-04-01T01:12:12;1.34;66.14
75466;HTU21D;64049;46.290;44.240;2023-04-01T01:15:40;1.34;66.33
75466;HTU21D;64049;46.290;44.240;2023-04-01T01:22:56;1.26;66.42
75466;HTU21D;64049;46.290;44.240;2023-04-01T01:25:59;1.28;66.76
75466;HTU21D;64049;46.290;44.240;2023-04-01T01:29:04;1.27;66.62
75466;HTU21D;64049;46.290;44.240;2023-04-01T01:34:40;1.22;66.88
75466;HTU21D;64049;46.290;44.240;2023-04-01T01:37:14;1.22;66.98
75466;HTU21D;64049;46.290;44.240;2023-04-01T01:39:43;1.20;67.08
75466;HTU21D;64049;46.290;44.240;2023-04-01T01:42:15;1.18;67.14
75466;HTU21D;64049;46.290;44.240;2023-04-01T01:44:45;1.17;67.14
75466;HTU21D;64049;46.290;44.240;2023-04-01T01:47:13;1.19;67.34
75466;HTU21D;64049;46.290;44.240;2023-04-01T01:49:40;1.22;67.40
75466;HTU21D;64049;46.290;44.240;2023-04-01T01:52:13;1.34;67.55
75466;HTU21D;64049;46.290;44.240;2023-04-01T01:54:53;1.38;67.30
75466;HTU21D;64049;46.290;44.240;2023-04-01T01:57:25;1.40;67.41
75466;HTU21D;64049;46.290;44.240;2023-04-01T01:59:58;1.40;67.43
75466;HTU21D;64049;46.290;44.240;2023-04-01T02:02:33;1.45;67.41
75466;HTU21D;64049;46.290;44.240;2023-04-01T02:05:00;1.45;67.29
75466;HTU21D;64049;46.290;44.240;2023-04-01T02:07:31;1.41;67.38
75466;HTU21D;64049;46.290;44.240;2023-04-01T02:09:58;1.45;67.52
75466;HTU21D;64049;46.290;44.240;2023-04-01T02:12:24;1.39;67.38
75466;HTU21D;64049;46.290;44.240;2023-04-01T02:15:04;1.35;67.57
75466;HTU21D;64049;46.290;44.240;2023-04-01T02:17:34;1.35;67.72
75466;HTU21D;64049;46.290;44.240;2023-04-01T02:22:36;1.38;67.75
75466;HTU21D;64049;46.290;44.240;2023-04-01T02:25:07;1.37;67.72
75466;HTU21D;64049;46.290;44.240;2023-04-01T02:27:34;1.36;67.81
75466;HTU21D;64049;46.290;44.240;2023-04-01T02:30:00;1.33;67.77
75466;HTU21D;64049;46.290;44.240;2023-04-01T02:32:27;1.27;67.80
75466;HTU21D;64049;46.290;44.240;2023-04-01T02:34:55;1.21;67.84
75466;HTU21D;64049;46.290;44.240;2023-04-01T02:37:22;1.16;67.89
75466;HTU21D;64049;46.290;44.240;2023-04-01T02:39:48;1.10;67.97
75466;HTU21D;64049;46.290;44.240;2023-04-01T02:42:15;1.10;68.05
75466;HTU21D;64049;46.290;44.240;2023-04-01T02:44:41;1.07;68.07
75466;HTU21D;64049;46.290;44.240;2023-04-01T02:47:07;1.10;68.06
75466;HTU21D;64049;46.290;44.240;2023-04-01T02:49:33;1.13;68.07
75466;HTU21D;64049;46.290;44.240;2023-04-01T02:52:11;1.16;68.17
75466;HTU21D;64049;46.290;44.240;2023-04-01T02:54:38;1.19;68.11
75466;HTU21D;64049;46.290;44.240;2023-04-01T02:57:04;1.21;68.09
75466;HTU21D;64049;46.290;44.240;2023-04-01T02:59:30;1.24;68.04
75466;HTU21D;64049;46.290;44.240;2023-04-01T03:01:56;1.32;67.96
75466;HTU21D;64049;46.290;44.240;2023-04-01T03:04:21;1.38;67.83
75466;HTU21D;64049;46.290;44.240;2023-04-01T03:06:47;1.45;67.73
75466;HTU21D;64049;46.290;44.240;2023-04-01T03:09:13;1.51;67.67
75466;HTU21D;64049;46.290;44.240;2023-04-01T03:11:39;1.56;67.52
75466;HTU21D;64049;46.290;44.240;2023-04-01T03:14:06;1.54;67.52
75466;HTU21D;64049;46.290;44.240;2023-04-01T03:16:32;1.45;67.55
75466;HTU21D;64049;46.290;44.240;2023-04-01T03:18:58;1.32;67.59
75466;HTU21D;64049;46.290;44.240;2023-04-01T03:21:29;1.23;68.07
75466;HTU21D;64049;46.290;44.240;2023-04-01T03:23:55;1.10;68.14
75466;HTU21D;64049;46.290;44.240;2023-04-01T03:26:21;1.04;68.19
75466;HTU21D;64049;46.290;44.240;2023-04-01T03:28:47;0.94;68.01
75466;HTU21D;64049;46.290;44.240;2023-04-01T03:31:20;0.87;67.99
75466;HTU21D;64049;46.290;44.240;2023-04-01T03:33:50;0.81;68.02
75466;HTU21D;64049;46.290;44.240;2023-04-01T03:36:17;0.81;68.01
75466;HTU21D;64049;46.290;44.240;2023-04-01T03:38:44;0.87;67.94
75466;HTU21D;64049;46.290;44.240;2023-04-01T03:41:15;0.95;67.72
75466;HTU21D;64049;46.290;44.240;2023-04-01T03:43:43;1.04;67.53
75466;HTU21D;64049;46.290;44.240;2023-04-01T03:46:10;1.14;67.36
75466;HTU21D;64049;46.290;44.240;2023-04-01T03:48:36;1.24;67.20
75466;HTU21D;64049;46.290;44.240;2023-04-01T03:51:06;1.38;67.05
75466;HTU21D;64049;46.290;44.240;2023-04-01T03:53:33;1.58;66.95
75466;HTU21D;64049;46.290;44.240;2023-04-01T03:56:05;1.86;66.76
75466;HTU21D;64049;46.290;44.240;2023-04-01T03:58:32;2.07;66.46
75466;HTU21D;64049;46.290;44.240;2023-04-01T04:01:00;2.29;66.21
75466;HTU21D;64049;46.290;44.240;2023-04-01T04:03:26;2.54;66.17
75466;HTU21D;64049;46.290;44.240;2023-04-01T04:05:52;2.82;66.04
75466;HTU21D;64049;46.290;44.240;2023-04-01T04:08:18;3.08;65.88
75466;HTU21D;64049;46.290;44.240;2023-04-01T04:10:44;3.34;65.70
75466;HTU21D;64049;46.290;44.240;2023-04-01T04:13:12;3.64;65.75
75466;HTU21D;64049;46.290;44.240;2023-04-01T04:15:46;3.91;65.49
75466;HTU21D;64049;46.290;44.240;2023-04-01T04:18:11;4.12;65.37
75466;HTU21D;64049;46.290;44.240;2023-04-01T04:20:44;4.34;65.26
75466;HTU21D;64049;46.290;44.240;2023-04-01T04:23:14;4.57;65.06
75466;HTU21D;64049;46.290;44.240;2023-04-01T04:25:40;4.79;64.87
75466;HTU21D;64049;46.290;44.240;2023-04-01T04:28:06;4.98;64.63
75466;HTU21D;64049;46.290;44.240;2023-04-01T04:30:34;5.12;64.46
75466;HTU21D;64049;46.290;44.240;2023-04-01T04:33:00;5.25;64.15
75466;HTU21D;64049;46.290;44.240;2023-04-01T04:35:26;5.35;64.07
75466;HTU21D;64049;46.290;44.240;2023-04-01T04:37:52;5.41;64.01
75466;HTU21D;64049;46.290;44.240;2023-04-01T04:40:19;5.52;63.92
75466;HTU21D;64049;46.290;44.240;2023-04-01T04:42:45;5.65;63.71
75466;HTU21D;64049;46.290;44.240;2023-04-01T04:45:14;5.75;63.21
75466;HTU21D;64049;46.290;44.240;2023-04-01T04:47:48;5.82;62.94
75466;HTU21D;64049;46.290;44.240;2023-04-01T04:50:14;5.92;62.82
75466;HTU21D;64049;46.290;44.240;2023-04-01T04:52:40;6.05;62.64
75466;HTU21D;64049;46.290;44.240;2023-04-01T04:55:07;6.17;62.46
75466;HTU21D;64049;46.290;44.240;2023-04-01T04:57:33;6.30;62.24
75466;HTU21D;64049;46.290;44.240;2023-04-01T04:59:59;6.43;62.01
75466;HTU21D;64049;46.290;44.240;2023-04-01T05:02:44;6.58;61.98
75466;HTU21D;64049;46.290;44.240;2023-04-01T05:05:10;6.72;61.61
75466;HTU21D;64049;46.290;44.240;2023-04-01T05:07:36;6.80;61.47
75466;HTU21D;64049;46.290;44.240;2023-04-01T05:10:02;6.88;61.25
75466;HTU21D;64049;46.290;44.240;2023-04-01T05:12:31;7.02;61.25
75466;HTU21D;64049;46.290;44.240;2023-04-01T05:15:04;7.12;60.91
75466;HTU21D;64049;46.290;44.240;2023-04-01T05:17:30;7.19;60.87
75466;HTU21D;64049;46.290;44.240;2023-04-01T05:19:57;7.32;60.63
75466;HTU21D;64049;46.290;44.240;2023-04-01T05:22:24;7.41;60.09
75466;HTU21D;64049;46.290;44.240;2023-04-01T05:24:51;7.52;59.84
75466;HTU21D;64049;46.290;44.240;2023-04-01T05:27:17;7.62;59.56
75466;HTU21D;64049;46.290;44.240;2023-04-01T05:29:43;7.76;59.19
75466;HTU21D;64049;46.290;44.240;2023-04-01T05:32:31;7.93;59.03
75466;HTU21D;64049;46.290;44.240;2023-04-01T05:34:57;8.08;58.39
75466;HTU21D;64049;46.290;44.240;2023-04-01T05:37:23;8.19;58.30
75466;HTU21D;64049;46.290;44.240;2023-04-01T05:39:49;8.33;57.97
75466;HTU21D;64049;46.290;44.240;2023-04-01T05:42:19;8.51;57.74
75466;HTU21D;64049;46.290;44.240;2023-04-01T05:44:45;8.64;57.01
75466;HTU21D;64049;46.290;44.240;2023-04-01T05:47:31;8.74;56.50
75466;HTU21D;64049;46.290;44.240;2023-04-01T05:49:57;8.80;56.56
75466;HTU21D;64049;46.290;44.240;2023-04-01T05:52:28;8.96;56.21
75466;HTU21D;64049;46.290;44.240;2023-04-01T05:54:54;9.04;55.78
75466;HTU21D;64049;46.290;44.240;2023-04-01T05:57:20;9.07;55.45
75466;HTU21D;64049;46.290;44.240;2023-04-01T05:59:46;9.15;55.54
75466;HTU21D;64049;46.290;44.240;2023-04-01T06:02:12;9.31;55.27
75466;HTU21D;64049;46.290;44.240;2023-04-01T06:04:39;9.49;54.93
75466;HTU21D;64049;46.290;44.240;2023-04-01T06:07:13;9.53;54.82
75466;HTU21D;64049;46.290;44.240;2023-04-01T06:09:40;9.61;53.78
75466;HTU21D;64049;46.290;44.240;2023-04-01T06:23:04;10.37;53.21
75466;HTU21D;64049;46.290;44.240;2023-04-01T06:31:51;10.71;52.57
75466;HTU21D;64049;46.290;44.240;2023-04-01T06:40:24;10.98;51.32
75466;HTU21D;64049;46.290;44.240;2023-04-01T06:43:04;11.18;51.30
75466;HTU21D;64049;46.290;44.240;2023-04-01T06:46:06;11.53;51.04
75466;HTU21D;64049;46.290;44.240;2023-04-01T06:49:36;11.77;49.99
75466;HTU21D;64049;46.290;44.240;2023-04-01T06:52:35;11.84;50.47
75466;HTU21D;64049;46.290;44.240;2023-04-01T06:55:32;11.92;50.21
75466;HTU21D;64049;46.290;44.240;2023-04-01T06:58:39;11.94;49.63
75466;HTU21D;64049;46.290;44.240;2023-04-01T07:01:10;11.96;49.00
75466;HTU21D;64049;46.290;44.240;2023-04-01T07:04:00;11.91;47.71
75466;HTU21D;64049;46.290;44.240;2023-04-01T07:06:36;11.94;47.52
75466;HTU21D;64049;46.290;44.240;2023-04-01T07:09:08;12.13;48.09
75466;HTU21D;64049;46.290;44.240;2023-04-01T07:12:02;12.31;47.55
75466;HTU21D;64049;46.290;44.240;2023-04-01T07:14:54;12.63;47.71
75466;HTU21D;64049;46.290;44.240;2023-04-01T07:17:23;13.00;47.92
75466;HTU21D;64049;46.290;44.240;2023-04-01T07:20:16;13.39;47.55
75466;HTU21D;64049;46.290;44.240;2023-04-01T07:22:49;13.70;46.96
75466;HTU21D;64049;46.290;44.240;2023-04-01T07:28:17;14.15;46.14
75466;HTU21D;64049;46.290;44.240;2023-04-01T07:36:33;14.58;45.28
75466;HTU21D;64049;46.290;44.240;2023-04-01T07:39:36;14.83;44.88
75466;HTU21D;64049;46.290;44.240;2023-04-01T07:48:08;14.45;43.20
75466;HTU21D;64049;46.290;44.240;2023-04-01T08:05:26;15.92;40.65
75466;HTU21D;64049;46.290;44.240;2023-04-01T08:08:46;16.08;40.37
75466;HTU21D;64049;46.290;44.240;2023-04-01T08:12:11;16.55;40.17
75466;HTU21D;64049;46.290;44.240;2023-04-01T08:23:45;17.54;37.10
75466;HTU21D;64049;46.290;44.240;2023-04-01T08:26:30;17.23;37.02
75466;HTU21D;64049;46.290;44.240;2023-04-01T08:29:02;17.48;36.55
75466;HTU21D;64049;46.290;44.240;2023-04-01T08:31:33;17.66;36.26
75466;HTU21D;64049;46.290;44.240;2023-04-01T08:34:03;17.72;36.79
75466;HTU21D;64049;46.290;44.240;2023-04-01T08:36:34;17.83;35.85
75466;HTU21D;64049;46.290;44.240;2023-04-01T08:39:38;18.02;35.41
75466;HTU21D;64049;46.290;44.240;2023-04-01T08:48:23;17.99;32.31
75466;HTU21D;64049;46.290;44.240;2023-04-01T08:59:13;19.55;31.79
75466;HTU21D;64049;46.290;44.240;2023-04-01T09:07:29;18.85;32.21
75466;HTU21D;64049;46.290;44.240;2023-04-01T09:16:21;18.98;32.20
75466;HTU21D;64049;46.290;44.240;2023-04-01T09:19:14;19.02;31.66
75466;HTU21D;64049;46.290;44.240;2023-04-01T09:35:49;16.00;33.86
75466;HTU21D;64049;46.290;44.240;2023-04-01T09:38:20;15.87;33.39
75466;HTU21D;64049;46.290;44.240;2023-04-01T09:52:32;14.50;34.25
75466;HTU21D;64049;46.290;44.240;2023-04-01T10:09:25;14.39;35.24
75466;HTU21D;64049;46.290;44.240;2023-04-01T10:24:22;15.01;33.73
75466;HTU21D;64049;46.290;44.240;2023-04-01T10:38:10;14.78;32.68
75466;HTU21D;64049;46.290;44.240;2023-04-01T10:43:42;15.39;31.99
75466;HTU21D;64049;46.290;44.240;2023-04-01T10:46:34;15.85;32.02
75466;HTU21D;64049;46.290;44.240;2023-04-01T10:55:04;17.03;31.79
75466;HTU21D;64049;46.290;44.240;2023-04-01T11:29:23;16.35;31.57
75466;HTU21D;64049;46.290;44.240;2023-04-01T12:01:04;18.59;28.95
75466;HTU21D;64049;46.290;44.240;2023-04-01T12:03:58;18.86;28.47
75466;HTU21D;64049;46.290;44.240;2023-04-01T12:09:37;18.86;26.17
75466;HTU21D;64049;46.290;44.240;2023-04-01T12:18:53;17.76;28.84
75466;HTU21D;64049;46.290;44.240;2023-04-01T12:39:29;16.35;29.72
75466;HTU21D;64049;46.290;44.240;2023-04-01T12:46:05;16.46;29.57
75466;HTU21D;64049;46.290;44.240;2023-04-01T12:55:41;20.04;25.20
75466;HTU21D;64049;46.290;44.240;2023-04-01T13:01:35;20.17;24.65
75466;HTU21D;64049;46.290;44.240;2023-04-01T13:04:38;19.79;25.59
75466;HTU21D;64049;46.290;44.240;2023-04-01T13:25:13;21.17;21.44
75466;HTU21D;64049;46.290;44.240;2023-04-01T13:27:55;21.61;21.52
75466;HTU21D;64049;46.290;44.240;2023-04-01T13:46:47;26.94;17.38
75466;HTU21D;64049;46.290;44.240;2023-04-01T13:59:05;27.11;16.95
75466;HTU21D;64049;46.290;44.240;2023-04-01T14:05:36;27.91;15.24
75466;HTU21D;64049;46.290;44.240;2023-04-01T14:20:07;26.80;15.28
75466;HTU21D;64049;46.290;44.240;2023-04-01T14:26:56;22.87;19.42
75466;HTU21D;64049;46.290;44.240;2023-04-01T14:32:22;21.38;21.08
75466;HTU21D;64049;46.290;44.240;2023-04-01T14:35:10;21.85;20.70
75466;HTU21D;64049;46.290;44.240;2023-04-01T14:51:33;17.26;25.89
75466;HTU21D;64049;46.290;44.240;2023-04-01T14:54:06;16.64;26.75
75466;HTU21D;64049;46.290;44.240;2023-04-01T14:56:36;16.10;27.45
75466;HTU21D;64049;46.290;44.240;2023-04-01T14:59:28;15.59;28.36
75466;HTU21D;64049;46.290;44.240;2023-04-01T15:07:56;14.73;29.93
75466;HTU21D;64049;46.290;44.240;2023-04-01T15:24:10;12.57;32.95
75466;HTU21D;64049;46.290;44.240;2023-04-01T15:27:08;12.32;33.49
75466;HTU21D;64049;46.290;44.240;2023-04-01T15:35:31;11.62;35.02
75466;HTU21D;64049;46.290;44.240;2023-04-01T15:41:14;11.24;36.09
75466;HTU21D;64049;46.290;44.240;2023-04-01T15:43:49;11.03;36.43
75466;HTU21D;64049;46.290;44.240;2023-04-01T15:49:11;10.65;37.75
75466;HTU21D;64049;46.290;44.240;2023-04-01T15:52:05;10.44;38.33
75466;HTU21D;64049;46.290;44.240;2023-04-01T15:54:53;10.25;38.88
75466;HTU21D;64049;46.290;44.240;2023-04-01T16:00:25;9.84;39.79
75466;HTU21D;64049;46.290;44.240;2023-04-01T16:06:55;9.55;40.18
75466;HTU21D;64049;46.290;44.240;2023-04-01T16:09:17;9.40;41.08
75466;HTU21D;64049;46.290;44.240;2023-04-01T16:25:24;8.79;43.17
75466;HTU21D;64049;46.290;44.240;2023-04-01T16:31:03;8.53;43.22
75466;HTU21D;64049;46.290;44.240;2023-04-01T16:33:52;8.42;43.72
75466;HTU21D;64049;46.290;44.240;2023-04-01T16:39:41;8.20;44.29
75466;HTU21D;64049;46.290;44.240;2023-04-01T16:47:38;7.93;44.76
75466;HTU21D;64049;46.290;44.240;2023-04-01T16:50:20;7.88;45.12
75466;HTU21D;64049;46.290;44.240;2023-04-01T16:55:49;7.72;45.41
75466;HTU21D;64049;46.290;44.240;2023-04-01T16:58:25;7.64;45.70
75466;HTU21D;64049;46.290;44.240;2023-04-01T17:01:00;7.60;45.83
75466;HTU21D;64049;46.290;44.240;2023-04-01T17:03:36;7.53;46.06
75466;HTU21D;64049;46.290;44.240;2023-04-01T17:06:17;7.47;46.29
75466;HTU21D;64049;46.290;44.240;2023-04-01T17:22:44;7.00;46.98
75466;HTU21D;64049;46.290;44.240;2023-04-01T17:28:04;6.84;46.80
75466;HTU21D;64049;46.290;44.240;2023-04-01T17:53:32;6.20;47.67
75466;HTU21D;64049;46.290;44.240;2023-04-01T18:04:54;5.90;48.05
75466;HTU21D;64049;46.290;44.240;2023-04-01T18:16:13;5.74;47.92
75466;HTU21D;64049;46.290;44.240;2023-04-01T18:18:59;5.68;48.05
75466;HTU21D;64049;46.290;44.240;2023-04-01T18:21:40;5.64;48.04
75466;HTU21D;64049;46.290;44.240;2023-04-01T18:24:27;5.59;48.15
75466;HTU21D;64049;46.290;44.240;2023-04-01T18:29:44;5.50;48.13
75466;HTU21D;64049;46.290;44.240;2023-04-01T18:38:12;5.46;48.23
75466;HTU21D;64049;46.290;44.240;2023-04-01T18:41:07;5.43;48.40
75466;HTU21D;64049;46.290;44.240;2023-04-01T18:51:25;5.40;48.83
75466;HTU21D;64049;46.290;44.240;2023-04-01T18:54:02;5.40;48.86
75466;HTU21D;64049;46.290;44.240;2023-04-01T18:56:36;5.40;49.14
75466;HTU21D;64049;46.290;44.240;2023-04-01T19:04:52;5.57;49.53
75466;HTU21D;64049;46.290;44.240;2023-04-01T19:07:46;5.54;49.37
75466;HTU21D;64049;46.290;44.240;2023-04-01T19:21:37;5.24;49.66
75466;HTU21D;64049;46.290;44.240;2023-04-01T19:29:46;5.20;49.92
75466;HTU21D;64049;46.290;44.240;2023-04-01T19:35:34;5.09;50.01
75466;HTU21D;64049;46.290;44.240;2023-04-01T19:38:26;5.05;50.08
75466;HTU21D;64049;46.290;44.240;2023-04-01T19:41:01;4.98;50.03
75466;HTU21D;64049;46.290;44.240;2023-04-01T19:43:51;4.92;50.23
75466;HTU21D;64049;46.290;44.240;2023-04-01T19:49:14;4.83;50.34
75466;HTU21D;64049;46.290;44.240;2023-04-01T20:04:58;4.52;50.92
75466;HTU21D;64049;46.290;44.240;2023-04-01T20:10:16;4.38;51.29
75466;HTU21D;64049;46.290;44.240;2023-04-01T20:15:45;4.30;51.49
75466;HTU21D;64049;46.290;44.240;2023-04-01T20:18:37;4.26;51.52
75466;HTU21D;64049;46.290;44.240;2023-04-01T20:24:37;4.16;51.55
75466;HTU21D;64049;46.290;44.240;2023-04-01T20:44:13;4.34;52.25
75466;HTU21D;64049;46.290;44.240;2023-04-01T20:49:28;4.49;52.97
75466;HTU21D;64049;46.290;44.240;2023-04-01T20:58:06;4.69;53.16
75466;HTU21D;64049;46.290;44.240;2023-04-01T21:07:16;4.61;53.16
75466;HTU21D;64049;46.290;44.240;2023-04-01T21:12:56;4.61;53.03
75466;HTU21D;64049;46.290;44.240;2023-04-01T21:16:37;4.57;53.04
75466;HTU21D;64049;46.290;44.240;2023-04-01T21:41:22;4.73;53.14
75466;HTU21D;64049;46.290;44.240;2023-04-01T21:47:02;4.73;53.57
75466;HTU21D;64049;46.290;44.240;2023-04-01T21:52:38;4.68;53.64
75466;HTU21D;64049;46.290;44.240;2023-04-01T22:00:24;4.88;53.39
75466;HTU21D;64049;46.290;44.240;2023-04-01T22:03:31;4.88;53.51
75466;HTU21D;64049;46.290;44.240;2023-04-01T22:13:56;4.98;53.56
75466;HTU21D;64049;46.290;44.240;2023-04-01T22:16:42;5.02;53.65
75466;HTU21D;64049;46.290;44.240;2023-04-01T22:19:16;5.05;53.72
75466;HTU21D;64049;46.290;44.240;2023-04-01T22:30:17;4.98;53.97
75466;HTU21D;64049;46.290;44.240;2023-04-01T22:33:21;4.91;53.96
75466;HTU21D;64049;46.290;44.240;2023-04-01T22:41:47;4.82;54.27
75466;HTU21D;64049;46.290;44.240;2023-04-01T22:47:12;4.75;54.41
75466;HTU21D;64049;46.290;44.240;2023-04-01T22:49:50;4.75;54.59
75466;HTU21D;64049;46.290;44.240;2023-04-01T22:52:33;4.74;54.68
75466;HTU21D;64049;46.290;44.240;2023-04-01T22:55:24;4.74;54.87
75466;HTU21D;64049;46.290;44.240;2023-04-01T22:58:00;4.74;55.20
75466;HTU21D;64049;46.290;44.240;2023-04-01T23:00:45;4.72;55.18
75466;HTU21D;64049;46.290;44.240;2023-04-01T23:03:24;4.66;55.18
75466;HTU21D;64049;46.290;44.240;2023-04-01T23:05:55;4.65;55.77
75466;HTU21D;64049;46.290;44.240;2023-04-01T23:10:58;4.68;56.17
75466;HTU21D;64049;46.290;44.240;2023-04-01T23:13:50;4.67;56.45
75466;HTU21D;64049;46.290;44.240;2023-04-01T23:16:31;4.65;56.53
75466;HTU21D;64049;46.290;44.240;2023-04-01T23:27:12;4.75;57.47
75466;HTU21D;64049;46.290;44.240;2023-04-01T23:29:40;4.75;57.50
75466;HTU21D;64049;46.290;44.240;2023-04-01T23:32:17;4.75;57.58
75466;HTU21D;64049;46.290;44.240;2023-04-01T23:34:52;4.74;57.40
75466;HTU21D;64049;46.290;44.240;2023-04-01T23:37:20;4.73;57.48
75466;HTU21D;64049;46.290;44.240;2023-04-01T23:39:49;4.72;57.60
75466;HTU21D;64049;46.290;44.240;2023-04-01T23:44:56;4.62;58.36
75466;HTU21D;64049;46.290;44.240;2023-04-01T23:47:34;4.43;58.46
75466;HTU21D;64049;46.290;44.240;2023-04-01T23:50:04;4.27;58.71
75466;HTU21D;64049;46.290;44.240;2023-04-01T23:53:00;4.15;59.17
75466;HTU21D;64049;46.290;44.240;2023-04-01T23:55:31;4.07;59.09
75466;HTU21D;64049;46.290;44.240;2023-04-01T23:58:41;4.02;58.97
